Time;durP1;ratioP1;P1;durP2;ratioP2;P2;SDS_P1;SDS_P2;PMS_P1;PMS_P2;Temp;Humidity;BMP_temperature;BMP_pressure;BME280_temperature;BME280_humidity;BME280_pressure;Samples;Min_cycle;Max_cycle;Signal;HPM_P1;HPM_P2
2022/08/26 00:00:41;;;;;;;;;;;21.30;99.90;;;;;;4992771;28;19920;-83
2022/08/26 00:03:06;;;;;;;;;;;21.30;99.90;;;;;;5009269;28;19933;-83
2022/08/26 00:05:33;;;;;;;;;;;21.20;99.90;;;;;;4994795;28;19925;-82
2022/08/26 00:07:59;;;;;;;;;;;21.20;99.90;;;;;;5010499;28;19976;-83
2022/08/26 00:10:24;;;;;;;;;;;21.20;99.90;;;;;;5013460;28;20384;-83
2022/08/26 00:12:50;;;;;;;;;;;21.20;99.90;;;;;;5011716;28;19925;-82
2022/08/26 00:15:18;;;;;;;;;;;21.10;99.90;;;;;;5027644;28;19944;-81
2022/08/26 00:17:44;;;;;;;;;;;21.00;99.90;;;;;;5010434;28;19925;-82
2022/08/26 00:20:12;;;;;;;;;;;21.00;99.90;;;;;;4977848;28;19925;-83
2022/08/26 00:22:40;;;;;;;;;;;20.90;99.90;;;;;;4997167;28;20019;-82
2022/08/26 00:25:06;;;;;;;;;;;21.00;99.90;;;;;;4987687;28;19933;-83
2022/08/26 00:27:32;;;;;;;;;;;21.00;99.90;;;;;;4989749;28;19947;-82
2022/08/26 00:30:05;;;;;;;;;;;20.90;99.90;;;;;;5009607;28;19925;-87
2022/08/26 00:32:31;;;;;;;;;;;21.00;99.90;;;;;;5010115;28;19933;-82
2022/08/26 00:34:57;;;;;;;;;;;20.90;99.90;;;;;;5010524;28;19940;-82
2022/08/26 00:37:22;;;;;;;;;;;21.00;99.90;;;;;;5008297;28;20391;-80
2022/08/26 00:39:48;;;;;;;;;;;21.00;99.90;;;;;;5006305;28;20011;-81
2022/08/26 00:42:14;;;;;;;;;;;20.90;99.90;;;;;;4975600;28;20408;-85
2022/08/26 00:44:41;;;;;;;;;;;20.90;99.90;;;;;;4977144;28;19933;-81
2022/08/26 00:47:10;;;;;;;;;;;20.90;99.90;;;;;;4998591;28;20418;-83
2022/08/26 00:49:44;;;;;;;;;;;20.90;99.90;;;;;;5010352;28;19978;-80
2022/08/26 00:52:15;;;;;;;;;;;20.90;99.90;;;;;;5006245;28;19929;-80
2022/08/26 00:54:53;;;;;;;;;;;20.90;99.90;;;;;;5008921;28;20519;-82
2022/08/26 00:57:20;;;;;;;;;;;20.90;99.90;;;;;;5005192;28;20546;-81
2022/08/26 00:59:48;;;;;;;;;;;20.90;99.90;;;;;;4992695;28;19968;-83
2022/08/26 01:02:14;;;;;;;;;;;20.90;99.90;;;;;;5007009;28;19925;-82
2022/08/26 01:04:40;;;;;;;;;;;20.90;99.90;;;;;;4997735;28;19932;-81
2022/08/26 01:07:06;;;;;;;;;;;20.90;99.90;;;;;;5005861;28;19936;-81
2022/08/26 01:09:32;;;;;;;;;;;21.00;99.90;;;;;;5009811;28;19925;-80
2022/08/26 01:11:59;;;;;;;;;;;21.00;99.90;;;;;;5011270;28;20716;-82
2022/08/26 01:14:31;;;;;;;;;;;20.90;99.90;;;;;;4990307;28;20323;-85
2022/08/26 01:16:57;;;;;;;;;;;21.00;99.90;;;;;;5004224;28;20341;-81
2022/08/26 01:19:23;;;;;;;;;;;20.90;99.90;;;;;;5007035;28;20406;-84
2022/08/26 01:21:53;;;;;;;;;;;21.00;99.90;;;;;;5001901;28;19925;-81
2022/08/26 01:24:19;;;;;;;;;;;20.90;99.90;;;;;;4987596;28;19936;-86
2022/08/26 01:26:45;;;;;;;;;;;20.90;99.90;;;;;;5009511;28;19951;-85
2022/08/26 01:29:13;;;;;;;;;;;20.90;99.90;;;;;;4992787;28;20443;-82
2022/08/26 01:31:42;;;;;;;;;;;20.90;99.90;;;;;;4993123;28;19963;-80
2022/08/26 01:34:14;;;;;;;;;;;20.90;99.90;;;;;;5010359;28;19921;-82
2022/08/26 01:36:40;;;;;;;;;;;20.90;99.90;;;;;;5003780;28;19929;-87
2022/08/26 01:39:06;;;;;;;;;;;20.90;99.90;;;;;;4987489;28;19929;-83
2022/08/26 01:41:34;;;;;;;;;;;20.90;99.90;;;;;;5009973;28;19925;-84
2022/08/26 01:44:00;;;;;;;;;;;20.80;99.90;;;;;;4992453;28;19936;-83
2022/08/26 01:46:28;;;;;;;;;;;20.80;99.90;;;;;;4996810;28;19933;-87
2022/08/26 01:48:56;;;;;;;;;;;20.80;99.90;;;;;;5000268;28;19951;-82
2022/08/26 01:51:23;;;;;;;;;;;20.80;99.90;;;;;;5012445;28;20019;-82
2022/08/26 01:53:49;;;;;;;;;;;20.80;99.90;;;;;;5017141;28;20007;-87
2022/08/26 01:56:15;;;;;;;;;;;20.80;99.90;;;;;;5030870;28;20383;-81
2022/08/26 01:58:43;;;;;;;;;;;20.70;99.90;;;;;;4980190;28;20011;-80
2022/08/26 02:01:09;;;;;;;;;;;20.70;99.90;;;;;;5009329;28;20040;-80
2022/08/26 02:03:40;;;;;;;;;;;20.70;99.90;;;;;;4990621;28;20028;-83
2022/08/26 02:08:53;;;;;;;;;;;20.90;99.90;;;;;;5104671;23;20051;-83
2022/08/26 02:11:19;;;;;;;;;;;20.60;99.90;;;;;;5011899;28;19951;-84
2022/08/26 02:13:50;;;;;;;;;;;20.60;99.90;;;;;;4994123;28;19933;-82
2022/08/26 02:16:18;;;;;;;;;;;20.70;99.90;;;;;;5003938;28;19925;-83
2022/08/26 02:18:46;;;;;;;;;;;20.60;99.90;;;;;;5011961;28;19995;-83
2022/08/26 02:21:12;;;;;;;;;;;20.70;99.90;;;;;;4998750;28;19932;-82
2022/08/26 02:23:38;;;;;;;;;;;20.70;99.90;;;;;;5006828;28;19929;-83
2022/08/26 02:26:16;;;;;;;;;;;20.70;99.90;;;;;;4995677;28;19948;-85
2022/08/26 02:28:47;;;;;;;;;;;20.60;99.90;;;;;;4995130;28;19936;-85
2022/08/26 02:31:13;;;;;;;;;;;20.70;99.90;;;;;;5012777;28;19952;-84
2022/08/26 02:33:39;;;;;;;;;;;20.70;99.90;;;;;;4981752;28;20347;-85
2022/08/26 02:36:06;;;;;;;;;;;20.60;99.90;;;;;;4996229;28;19929;-85
2022/08/26 02:38:32;;;;;;;;;;;20.60;99.90;;;;;;5012619;28;20019;-81
2022/08/26 02:40:58;;;;;;;;;;;20.70;99.90;;;;;;4979353;28;20112;-84
2022/08/26 02:43:24;;;;;;;;;;;20.60;99.90;;;;;;5013199;28;19925;-81
2022/08/26 02:45:51;;;;;;;;;;;20.60;99.90;;;;;;4977116;28;20008;-83
2022/08/26 02:48:20;;;;;;;;;;;20.60;99.90;;;;;;4988608;28;20075;-85
2022/08/26 02:50:46;;;;;;;;;;;20.60;99.90;;;;;;4995617;28;20016;-83
2022/08/26 02:53:12;;;;;;;;;;;20.60;99.90;;;;;;4996273;28;19960;-84
2022/08/26 02:55:39;;;;;;;;;;;20.60;99.90;;;;;;4995212;28;20028;-84
2022/08/26 02:58:04;;;;;;;;;;;20.60;99.90;;;;;;4978692;28;19926;-81
2022/08/26 03:00:31;;;;;;;;;;;20.60;99.90;;;;;;4994120;28;19975;-84
2022/08/26 03:02:57;;;;;;;;;;;20.60;99.90;;;;;;4987254;28;19932;-85
2022/08/26 03:05:24;;;;;;;;;;;20.60;99.90;;;;;;4995286;28;19925;-84
2022/08/26 03:07:50;;;;;;;;;;;20.60;99.90;;;;;;4978954;28;20295;-83
2022/08/26 03:10:17;;;;;;;;;;;20.60;99.90;;;;;;4998096;28;20079;-83
2022/08/26 03:12:45;;;;;;;;;;;20.60;99.90;;;;;;5012050;28;19940;-81
2022/08/26 03:15:13;;;;;;;;;;;20.60;99.90;;;;;;5009829;28;20057;-83
2022/08/26 03:17:39;;;;;;;;;;;20.60;99.90;;;;;;5006767;28;19929;-81
2022/08/26 03:20:08;;;;;;;;;;;20.60;99.90;;;;;;5024946;28;20006;-82
2022/08/26 03:22:38;;;;;;;;;;;20.60;99.90;;;;;;5012153;28;19932;-82
2022/08/26 03:25:07;;;;;;;;;;;20.60;99.90;;;;;;5011745;28;19968;-82
2022/08/26 03:27:33;;;;;;;;;;;20.60;99.90;;;;;;5028189;28;19940;-82
2022/08/26 03:33:02;;;;;;;;;;;20.60;99.90;;;;;;5022407;28;19937;-81
2022/08/26 03:35:28;;;;;;;;;;;20.60;99.90;;;;;;5004793;28;19933;-87
2022/08/26 03:37:54;;;;;;;;;;;20.60;99.90;;;;;;5012133;28;19943;-82
2022/08/26 03:40:21;;;;;;;;;;;20.60;99.90;;;;;;5027076;28;19937;-84
2022/08/26 03:42:48;;;;;;;;;;;20.60;99.90;;;;;;5014591;28;19925;-80
2022/08/26 03:45:14;;;;;;;;;;;20.60;99.90;;;;;;5020750;28;19971;-83
2022/08/26 03:47:59;;;;;;;;;;;20.60;99.90;;;;;;5027008;28;19940;-84
2022/08/26 03:50:25;;;;;;;;;;;20.60;99.90;;;;;;5012003;28;19925;-86
2022/08/26 03:52:51;;;;;;;;;;;20.60;99.90;;;;;;5025903;28;19924;-84
2022/08/26 03:55:18;;;;;;;;;;;20.60;99.90;;;;;;5030170;28;19926;-86
2022/08/26 03:57:43;;;;;;;;;;;20.60;99.90;;;;;;5012726;28;20378;-85
2022/08/26 04:00:13;;;;;;;;;;;20.50;99.90;;;;;;5024973;28;19924;-85
2022/08/26 04:02:44;;;;;;;;;;;20.50;99.90;;;;;;5027486;28;19940;-86
2022/08/26 04:05:12;;;;;;;;;;;20.50;99.90;;;;;;5027487;28;19929;-86
2022/08/26 04:07:38;;;;;;;;;;;20.50;99.90;;;;;;5027477;28;19925;-84
2022/08/26 04:10:04;;;;;;;;;;;20.50;99.90;;;;;;5027041;28;19925;-85
2022/08/26 04:12:30;;;;;;;;;;;20.50;99.90;;;;;;5025175;28;20387;-82
2022/08/26 04:14:57;;;;;;;;;;;20.50;99.90;;;;;;5023115;28;19941;-85
2022/08/26 04:17:24;;;;;;;;;;;20.50;99.90;;;;;;5025356;28;19934;-86
2022/08/26 04:19:51;;;;;;;;;;;20.50;99.90;;;;;;5028728;28;20431;-85
2022/08/26 04:22:17;;;;;;;;;;;20.40;99.90;;;;;;5032511;28;19932;-84
2022/08/26 04:24:44;;;;;;;;;;;20.40;99.90;;;;;;5027820;28;19921;-85
2022/08/26 04:27:30;;;;;;;;;;;20.40;99.90;;;;;;4996201;28;19925;-86
2022/08/26 04:29:56;;;;;;;;;;;20.40;99.90;;;;;;5023644;28;19975;-92
2022/08/26 04:32:22;;;;;;;;;;;20.40;99.90;;;;;;5012087;28;19925;-83
2022/08/26 04:34:48;;;;;;;;;;;20.40;99.90;;;;;;5010779;28;19937;-88
2022/08/26 04:37:15;;;;;;;;;;;20.40;99.90;;;;;;5011598;28;19925;-83
2022/08/26 04:39:41;;;;;;;;;;;20.40;99.90;;;;;;5005946;28;19960;-84
2022/08/26 04:42:28;;;;;;;;;;;20.40;99.90;;;;;;5030324;28;19933;-90
2022/08/26 04:44:55;;;;;;;;;;;20.40;99.90;;;;;;5031705;28;19925;-86
2022/08/26 04:47:21;;;;;;;;;;;20.40;99.90;;;;;;5027382;28;19929;-84
2022/08/26 04:49:46;;;;;;;;;;;20.40;99.90;;;;;;5008860;28;20401;-83
2022/08/26 04:52:12;;;;;;;;;;;20.40;99.90;;;;;;5024901;28;19935;-81
2022/08/26 04:54:38;;;;;;;;;;;20.40;99.90;;;;;;5040863;28;20016;-89
2022/08/26 04:57:04;;;;;;;;;;;20.40;99.90;;;;;;5010402;28;20400;-86
2022/08/26 04:59:30;;;;;;;;;;;20.40;99.90;;;;;;5028384;28;19929;-84
2022/08/26 05:01:58;;;;;;;;;;;20.30;99.90;;;;;;5008703;28;19937;-86
2022/08/26 05:04:24;;;;;;;;;;;20.30;99.90;;;;;;5009577;28;19975;-86
2022/08/26 05:06:50;;;;;;;;;;;20.30;99.90;;;;;;5027910;28;19965;-83
2022/08/26 05:09:17;;;;;;;;;;;20.30;99.90;;;;;;5010526;28;19929;-86
2022/08/26 05:11:45;;;;;;;;;;;20.30;99.90;;;;;;5006123;28;20020;-85
2022/08/26 05:14:14;;;;;;;;;;;20.30;99.90;;;;;;5026138;28;19972;-83
2022/08/26 05:16:41;;;;;;;;;;;20.30;99.90;;;;;;4992351;28;19931;-82
2022/08/26 05:19:07;;;;;;;;;;;20.30;99.90;;;;;;4992260;28;20630;-86
2022/08/26 05:21:32;;;;;;;;;;;20.30;99.90;;;;;;5000074;28;19929;-88
2022/08/26 05:24:00;;;;;;;;;;;20.30;99.90;;;;;;4978956;28;19966;-85
2022/08/26 05:26:27;;;;;;;;;;;20.30;99.90;;;;;;4999701;28;19972;-87
2022/08/26 05:28:54;;;;;;;;;;;20.30;99.90;;;;;;4997575;28;19933;-85
2022/08/26 05:31:22;;;;;;;;;;;20.30;99.90;;;;;;5010626;28;20570;-82
2022/08/26 05:33:48;;;;;;;;;;;20.30;99.90;;;;;;5015768;28;19992;-81
2022/08/26 05:36:16;;;;;;;;;;;20.30;99.90;;;;;;4989409;28;19929;-82
2022/08/26 05:38:42;;;;;;;;;;;20.30;99.90;;;;;;5009102;28;20011;-84
2022/08/26 05:41:38;;;;;;;;;;;20.30;99.90;;;;;;4999339;28;20003;-85
2022/08/26 05:44:05;;;;;;;;;;;20.30;99.90;;;;;;5000522;28;20082;-89
2022/08/26 05:46:32;;;;;;;;;;;20.00;99.90;;;;;;5000073;28;19921;-86
2022/08/26 05:48:58;;;;;;;;;;;20.30;99.90;;;;;;4985608;28;19925;-87
2022/08/26 05:51:27;;;;;;;;;;;20.30;99.90;;;;;;5009764;28;19932;-87
2022/08/26 05:53:54;;;;;;;;;;;20.30;99.90;;;;;;5008157;28;19925;-86
2022/08/26 05:56:26;;;;;;;;;;;20.30;99.90;;;;;;4974792;28;19925;-87
2022/08/26 05:58:52;;;;;;;;;;;20.30;99.90;;;;;;4997225;28;19926;-85
2022/08/26 06:01:20;;;;;;;;;;;20.30;99.90;;;;;;4984579;28;19925;-86
2022/08/26 06:03:50;;;;;;;;;;;20.30;99.90;;;;;;4997616;28;19932;-88
2022/08/26 06:06:17;;;;;;;;;;;20.30;99.90;;;;;;5016823;28;19980;-88
2022/08/26 06:08:44;;;;;;;;;;;20.30;99.90;;;;;;4989751;28;20409;-82
2022/08/26 06:11:11;;;;;;;;;;;20.30;99.90;;;;;;5012888;28;20449;-85
2022/08/26 06:13:38;;;;;;;;;;;20.30;99.90;;;;;;4988260;28;19956;-83
2022/08/26 06:16:07;;;;;;;;;;;20.30;99.90;;;;;;4994264;28;19936;-81
2022/08/26 06:18:35;;;;;;;;;;;20.30;99.90;;;;;;4988463;28;19975;-81
2022/08/26 06:21:10;;;;;;;;;;;20.40;99.90;;;;;;4992890;28;19932;-84
2022/08/26 06:26:41;;;;;;;;;;;20.40;99.90;;;;;;5006378;28;19929;-83
2022/08/26 06:29:07;;;;;;;;;;;20.40;99.90;;;;;;5001768;28;20016;-82
2022/08/26 06:31:52;;;;;;;;;;;20.40;99.90;;;;;;5011927;28;20032;-89
2022/08/26 06:34:18;;;;;;;;;;;20.40;99.90;;;;;;5023954;28;19933;-83
2022/08/26 06:36:46;;;;;;;;;;;20.50;99.90;;;;;;5003197;28;20281;-84
2022/08/26 06:39:16;;;;;;;;;;;20.50;99.90;;;;;;5005922;28;19925;-82
2022/08/26 06:41:43;;;;;;;;;;;20.50;99.90;;;;;;5004229;28;19965;-86
2022/08/26 06:44:11;;;;;;;;;;;20.50;99.90;;;;;;5022676;28;19939;-85
2022/08/26 06:46:37;;;;;;;;;;;20.60;99.90;;;;;;5022231;28;20392;-83
2022/08/26 06:49:03;;;;;;;;;;;20.60;99.90;;;;;;5007511;28;20428;-82
2022/08/26 06:51:30;;;;;;;;;;;20.60;99.90;;;;;;5002537;28;19940;-83
2022/08/26 06:53:59;;;;;;;;;;;20.60;99.90;;;;;;5006776;28;19925;-80
2022/08/26 06:56:27;;;;;;;;;;;20.60;99.90;;;;;;5021513;28;19925;-85
2022/08/26 06:58:53;;;;;;;;;;;20.50;99.90;;;;;;4999117;28;19929;-84
2022/08/26 07:01:20;;;;;;;;;;;20.70;99.90;;;;;;4999369;28;20565;-86
2022/08/26 07:03:47;;;;;;;;;;;20.70;99.90;;;;;;4985212;28;20281;-85
2022/08/26 07:06:13;;;;;;;;;;;20.70;99.90;;;;;;5001530;28;19929;-82
2022/08/26 07:08:39;;;;;;;;;;;20.60;99.90;;;;;;4998991;28;20557;-83
2022/08/26 07:11:07;;;;;;;;;;;20.60;99.90;;;;;;4987313;28;19948;-83
2022/08/26 07:13:36;;;;;;;;;;;20.60;99.90;;;;;;4984586;28;20009;-82
2022/08/26 07:16:06;;;;;;;;;;;20.70;99.90;;;;;;4987189;28;20003;-81
2022/08/26 07:18:33;;;;;;;;;;;20.70;99.90;;;;;;5001867;28;20288;-82
2022/08/26 07:21:00;;;;;;;;;;;20.70;99.90;;;;;;5000304;28;19979;-82
2022/08/26 07:23:26;;;;;;;;;;;20.70;99.90;;;;;;4988478;28;19937;-83
2022/08/26 07:25:51;;;;;;;;;;;20.70;99.90;;;;;;5006209;28;19925;-82
2022/08/26 07:28:17;;;;;;;;;;;20.70;99.90;;;;;;5003777;28;19937;-85
2022/08/26 07:30:43;;;;;;;;;;;20.70;99.90;;;;;;4988671;28;19931;-84
2022/08/26 07:33:10;;;;;;;;;;;20.70;99.90;;;;;;4979198;28;21289;-80
2022/08/26 07:35:36;;;;;;;;;;;20.70;99.90;;;;;;5000294;28;19929;-86
2022/08/26 07:38:02;;;;;;;;;;;20.70;99.90;;;;;;4997796;28;20028;-83
2022/08/26 07:40:28;;;;;;;;;;;20.70;99.90;;;;;;5003506;28;20016;-81
2022/08/26 07:42:54;;;;;;;;;;;20.70;99.90;;;;;;4971842;28;20000;-82
2022/08/26 07:45:20;;;;;;;;;;;20.70;99.90;;;;;;5000912;28;20028;-85
2022/08/26 07:47:46;;;;;;;;;;;20.70;99.90;;;;;;4974998;28;20085;-82
2022/08/26 07:50:12;;;;;;;;;;;20.70;99.90;;;;;;4986663;28;20142;-82
2022/08/26 07:52:38;;;;;;;;;;;20.80;99.90;;;;;;4989751;28;20504;-83
2022/08/26 07:55:05;;;;;;;;;;;20.80;99.90;;;;;;4991531;28;19925;-83
2022/08/26 07:57:31;;;;;;;;;;;20.80;99.90;;;;;;5019170;28;19925;-85
2022/08/26 07:59:57;;;;;;;;;;;20.80;99.90;;;;;;5038770;28;19925;-84
2022/08/26 08:02:24;;;;;;;;;;;20.80;99.90;;;;;;5003772;28;20043;-82
2022/08/26 08:04:51;;;;;;;;;;;20.90;99.90;;;;;;5023069;28;20034;-84
2022/08/26 08:07:16;;;;;;;;;;;20.90;99.90;;;;;;4991509;28;19925;-86
2022/08/26 08:09:42;;;;;;;;;;;20.90;99.90;;;;;;5026216;28;19939;-84
2022/08/26 08:12:08;;;;;;;;;;;20.90;99.90;;;;;;5006943;28;19932;-83
2022/08/26 08:14:36;;;;;;;;;;;21.00;99.90;;;;;;5025368;28;19925;-84
2022/08/26 08:17:03;;;;;;;;;;;21.10;99.90;;;;;;5028831;28;20248;-83
2022/08/26 08:19:29;;;;;;;;;;;21.10;99.90;;;;;;5013496;28;19951;-84
2022/08/26 08:21:55;;;;;;;;;;;21.10;99.90;;;;;;5014856;28;19955;-85
2022/08/26 08:24:21;;;;;;;;;;;21.10;99.90;;;;;;5015654;28;19936;-83
2022/08/26 08:26:46;;;;;;;;;;;21.20;99.90;;;;;;5013570;28;20008;-83
2022/08/26 08:29:12;;;;;;;;;;;21.30;99.90;;;;;;5014886;28;19929;-83
2022/08/26 08:31:38;;;;;;;;;;;21.40;99.90;;;;;;5031679;28;20581;-83
2022/08/26 08:34:05;;;;;;;;;;;21.50;99.90;;;;;;5022717;28;19932;-82
2022/08/26 08:36:31;;;;;;;;;;;21.60;99.90;;;;;;5026665;28;19936;-85
2022/08/26 08:38:57;;;;;;;;;;;21.60;99.90;;;;;;5004331;28;19924;-85
2022/08/26 08:41:38;;;;;;;;;;;21.60;99.90;;;;;;5027463;28;19944;-83
2022/08/26 08:44:08;;;;;;;;;;;21.60;99.90;;;;;;5017098;28;19925;-87
2022/08/26 08:46:34;;;;;;;;;;;21.60;99.90;;;;;;5007398;28;20053;-84
2022/08/26 08:49:02;;;;;;;;;;;21.60;99.90;;;;;;4992496;28;20015;-86
2022/08/26 08:51:33;;;;;;;;;;;21.50;99.90;;;;;;5009420;28;19935;-83
2022/08/26 08:53:59;;;;;;;;;;;21.40;99.90;;;;;;5013302;28;19976;-81
2022/08/26 08:56:34;;;;;;;;;;;21.50;99.90;;;;;;5027947;28;19970;-83
2022/08/26 08:59:02;;;;;;;;;;;21.40;99.90;;;;;;5011515;28;19935;-84
2022/08/26 09:01:47;;;;;;;;;;;21.30;99.90;;;;;;5028532;28;19933;-84
2022/08/26 09:04:16;;;;;;;;;;;21.30;99.90;;;;;;5013173;28;19979;-80
2022/08/26 09:06:43;;;;;;;;;;;21.20;99.90;;;;;;5016028;28;20438;-84
2022/08/26 09:09:15;;;;;;;;;;;21.30;99.90;;;;;;5026968;28;20015;-87
2022/08/26 09:11:45;;;;;;;;;;;21.40;99.90;;;;;;5017576;28;19937;-83
2022/08/26 09:14:11;;;;;;;;;;;21.40;99.90;;;;;;5028333;28;19941;-84
2022/08/26 09:17:00;;;;;;;;;;;21.40;99.90;;;;;;5029713;28;19978;-84
2022/08/26 09:19:32;;;;;;;;;;;21.40;99.90;;;;;;5027625;28;19925;-87
2022/08/26 09:21:58;;;;;;;;;;;21.40;99.90;;;;;;5029924;28;19928;-85
2022/08/26 09:24:24;;;;;;;;;;;21.30;99.90;;;;;;5008562;28;20375;-83
2022/08/26 09:26:51;;;;;;;;;;;21.30;99.90;;;;;;4998806;28;19984;-83
2022/08/26 09:29:20;;;;;;;;;;;21.30;99.90;;;;;;5009334;28;19924;-84
2022/08/26 09:31:48;;;;;;;;;;;21.20;99.90;;;;;;5013085;28;19925;-82
2022/08/26 09:34:16;;;;;;;;;;;21.20;99.90;;;;;;5033140;28;19966;-84
2022/08/26 09:36:43;;;;;;;;;;;21.10;99.90;;;;;;5009004;28;19929;-85
2022/08/26 09:39:27;;;;;;;;;;;21.10;99.90;;;;;;5006648;28;20092;-84
2022/08/26 09:42:05;;;;;;;;;;;21.00;99.90;;;;;;5012618;28;19925;-83
2022/08/26 09:44:31;;;;;;;;;;;20.90;99.90;;;;;;5007433;28;20459;-84
2022/08/26 09:46:58;;;;;;;;;;;20.90;99.90;;;;;;5026225;28;19928;-82
2022/08/26 09:49:35;;;;;;;;;;;20.90;99.90;;;;;;5006648;28;19932;-83
2022/08/26 09:52:03;;;;;;;;;;;20.90;99.90;;;;;;5028726;28;20346;-88
2022/08/26 09:54:30;;;;;;;;;;;20.80;99.90;;;;;;5014435;28;19964;-85
2022/08/26 09:57:11;;;;;;;;;;;20.80;99.90;;;;;;5009319;28;20376;-87
2022/08/26 09:59:37;;;;;;;;;;;20.80;99.90;;;;;;5022411;28;19979;-83
2022/08/26 10:02:19;;;;;;;;;;;20.80;99.90;;;;;;5004877;28;19933;-83
2022/08/26 10:04:49;;;;;;;;;;;20.90;99.90;;;;;;5020410;28;19924;-83
2022/08/26 10:07:32;;;;;;;;;;;20.90;99.90;;;;;;5020954;28;20614;-82
2022/08/26 10:09:58;;;;;;;;;;;20.90;99.90;;;;;;5007376;28;19940;-81
2022/08/26 10:12:24;;;;;;;;;;;20.90;99.90;;;;;;5007404;28;19924;-83
2022/08/26 10:14:55;;;;;;;;;;;21.00;99.90;;;;;;5020398;28;19925;-80
2022/08/26 10:17:20;;;;;;;;;;;21.10;99.90;;;;;;5006477;28;19925;-82
2022/08/26 10:19:51;;;;;;;;;;;21.10;99.90;;;;;;5012533;28;20218;-86
2022/08/26 10:22:21;;;;;;;;;;;21.20;99.90;;;;;;5012864;28;20147;-83
2022/08/26 10:24:51;;;;;;;;;;;21.10;99.90;;;;;;5026191;28;19975;-84
2022/08/26 10:27:41;;;;;;;;;;;21.10;99.90;;;;;;5028698;28;20307;-83
2022/08/26 10:30:09;;;;;;;;;;;21.10;99.90;;;;;;5010244;28;19925;-85
2022/08/26 10:32:40;;;;;;;;;;;21.00;99.90;;;;;;5010677;28;19925;-86
2022/08/26 10:35:08;;;;;;;;;;;21.00;99.90;;;;;;5005182;28;19925;-84
2022/08/26 10:37:52;;;;;;;;;;;21.00;99.90;;;;;;5027246;28;20311;-85
2022/08/26 10:40:40;;;;;;;;;;;21.00;99.90;;;;;;5025363;28;20349;-83
2022/08/26 10:43:15;;;;;;;;;;;21.00;99.90;;;;;;5021951;28;20153;-82
2022/08/26 10:45:43;;;;;;;;;;;21.00;99.90;;;;;;5009835;28;19929;-83
2022/08/26 10:48:15;;;;;;;;;;;20.90;99.90;;;;;;5024745;28;20399;-85
2022/08/26 10:50:42;;;;;;;;;;;20.90;99.90;;;;;;5011379;28;19932;-85
2022/08/26 10:53:20;;;;;;;;;;;20.90;99.90;;;;;;5003032;28;19935;-85
2022/08/26 10:55:49;;;;;;;;;;;20.90;99.90;;;;;;5004195;28;20062;-85
2022/08/26 10:58:18;;;;;;;;;;;20.90;99.90;;;;;;5022255;28;19925;-85
2022/08/26 11:03:35;;;;;;;;;;;20.80;99.90;;;;;;5025718;28;19925;-84
2022/08/26 11:06:16;;;;;;;;;;;20.80;99.90;;;;;;5010441;28;20311;-84
2022/08/26 11:09:02;;;;;;;;;;;20.80;99.90;;;;;;5027092;28;19999;-85
2022/08/26 11:11:40;;;;;;;;;;;20.80;99.90;;;;;;5009919;28;19929;-84
2022/08/26 11:14:18;;;;;;;;;;;20.80;99.90;;;;;;5011359;28;19982;-83
2022/08/26 11:16:48;;;;;;;;;;;20.80;99.90;;;;;;5011533;28;19955;-83
2022/08/26 11:19:33;;;;;;;;;;;20.70;99.90;;;;;;5024046;28;20091;-85
2022/08/26 11:22:10;;;;;;;;;;;20.70;99.90;;;;;;5028981;28;19929;-84
2022/08/26 11:24:45;;;;;;;;;;;20.60;99.90;;;;;;5026728;28;20217;-86
2022/08/26 11:27:24;;;;;;;;;;;20.60;99.90;;;;;;5025968;28;19936;-86
2022/08/26 11:30:09;;;;;;;;;;;20.70;99.90;;;;;;5021155;28;19933;-85
2022/08/26 11:32:38;;;;;;;;;;;20.80;99.90;;;;;;5021121;28;20292;-87
2022/08/26 11:35:06;;;;;;;;;;;20.90;99.90;;;;;;5005727;28;20469;-85
2022/08/26 11:37:35;;;;;;;;;;;21.00;99.90;;;;;;5004268;28;19996;-86
2022/08/26 11:40:02;;;;;;;;;;;21.10;99.90;;;;;;5005011;28;19935;-86
2022/08/26 11:42:31;;;;;;;;;;;21.30;99.90;;;;;;5019630;28;19933;-87
2022/08/26 11:44:58;;;;;;;;;;;21.40;99.90;;;;;;5008198;28;19936;-86
2022/08/26 11:47:25;;;;;;;;;;;21.40;99.90;;;;;;5008235;28;19929;-84
2022/08/26 11:50:05;;;;;;;;;;;21.40;99.90;;;;;;5022969;28;20013;-84
2022/08/26 11:52:31;;;;;;;;;;;21.40;99.90;;;;;;5003125;28;19939;-84
2022/08/26 11:55:08;;;;;;;;;;;21.40;99.90;;;;;;5008468;28;19951;-84
2022/08/26 11:57:39;;;;;;;;;;;21.30;99.90;;;;;;5022683;28;19936;-82
2022/08/26 12:00:07;;;;;;;;;;;21.20;99.90;;;;;;5019894;28;19925;-85
2022/08/26 12:02:33;;;;;;;;;;;21.10;99.90;;;;;;4999812;28;19964;-83
2022/08/26 12:04:59;;;;;;;;;;;21.00;99.90;;;;;;5005148;28;20026;-87
2022/08/26 12:07:27;;;;;;;;;;;20.90;99.90;;;;;;5002404;28;20020;-86
2022/08/26 12:09:55;;;;;;;;;;;20.80;99.90;;;;;;5025214;28;20863;-84
2022/08/26 12:12:28;;;;;;;;;;;20.80;99.90;;;;;;5000238;28;19936;-87
2022/08/26 12:15:23;;;;;;;;;;;20.60;99.90;;;;;;5001188;28;19971;-85
2022/08/26 12:17:49;;;;;;;;;;;20.50;99.90;;;;;;4983776;28;20051;-86
2022/08/26 12:20:46;;;;;;;;;;;20.40;99.90;;;;;;5023280;28;20387;-81
2022/08/26 12:23:22;;;;;;;;;;;20.30;99.90;;;;;;5015195;28;19936;-83
2022/08/26 12:25:49;;;;;;;;;;;20.20;99.90;;;;;;5019984;28;20027;-81
2022/08/26 12:28:15;;;;;;;;;;;20.20;99.90;;;;;;5026739;28;20300;-83
2022/08/26 12:30:56;;;;;;;;;;;20.20;99.90;;;;;;5017410;28;19952;-82
2022/08/26 12:33:22;;;;;;;;;;;20.20;99.90;;;;;;5019704;28;19928;-83
2022/08/26 12:35:48;;;;;;;;;;;20.10;99.90;;;;;;5008668;28;20009;-80
2022/08/26 12:38:18;;;;;;;;;;;20.10;99.90;;;;;;4992503;28;19979;-85
2022/08/26 12:40:46;;;;;;;;;;;20.10;99.90;;;;;;5011990;28;19929;-82
2022/08/26 12:43:16;;;;;;;;;;;20.00;99.90;;;;;;5005830;28;20234;-85
2022/08/26 12:45:53;;;;;;;;;;;19.90;99.90;;;;;;5020065;28;19936;-83
2022/08/26 12:48:29;;;;;;;;;;;19.90;99.90;;;;;;5001818;28;20453;-80
2022/08/26 12:50:56;;;;;;;;;;;19.90;99.90;;;;;;5007349;28;19952;-83
2022/08/26 12:53:23;;;;;;;;;;;19.80;99.90;;;;;;5020994;28;19933;-83
2022/08/26 12:55:52;;;;;;;;;;;19.70;99.90;;;;;;5007830;28;20416;-82
2022/08/26 12:58:18;;;;;;;;;;;19.70;99.90;;;;;;5004421;28;20394;-84
2022/08/26 13:00:50;;;;;;;;;;;19.70;99.90;;;;;;5001486;28;19964;-82
2022/08/26 13:03:29;;;;;;;;;;;19.70;99.90;;;;;;5000438;28;19975;-83
2022/08/26 13:06:15;;;;;;;;;;;19.80;99.90;;;;;;5022753;28;19959;-83
2022/08/26 13:08:42;;;;;;;;;;;19.80;99.90;;;;;;5015512;28;20485;-81
2022/08/26 13:11:10;;;;;;;;;;;19.80;99.90;;;;;;5023382;28;19937;-82
2022/08/26 13:13:36;;;;;;;;;;;19.90;99.90;;;;;;5023103;28;19941;-84
2022/08/26 13:16:02;;;;;;;;;;;19.90;99.90;;;;;;4992088;28;19932;-84
2022/08/26 13:18:28;;;;;;;;;;;20.00;99.90;;;;;;5007341;28;20308;-84
2022/08/26 13:20:55;;;;;;;;;;;20.10;99.90;;;;;;5005244;28;19929;-85
2022/08/26 13:23:22;;;;;;;;;;;20.20;99.90;;;;;;4999650;28;20324;-82
2022/08/26 13:25:48;;;;;;;;;;;20.10;99.90;;;;;;5020830;28;20406;-85
2022/08/26 13:28:14;;;;;;;;;;;20.00;99.90;;;;;;5004214;28;19936;-83
2022/08/26 13:30:43;;;;;;;;;;;20.00;99.90;;;;;;5014676;28;19933;-82
2022/08/26 13:33:09;;;;;;;;;;;20.00;99.90;;;;;;5023141;28;19941;-82
2022/08/26 13:35:34;;;;;;;;;;;19.90;99.90;;;;;;5003654;28;19932;-86
2022/08/26 13:38:00;;;;;;;;;;;19.90;99.90;;;;;;5020659;28;19928;-83
2022/08/26 13:40:26;;;;;;;;;;;20.00;99.90;;;;;;5008170;28;20287;-86
2022/08/26 13:42:52;;;;;;;;;;;20.10;99.90;;;;;;4997639;28;19957;-83
2022/08/26 13:45:17;;;;;;;;;;;20.20;99.90;;;;;;5021634;28;20370;-87
2022/08/26 13:47:45;;;;;;;;;;;20.30;99.90;;;;;;5028783;28;19933;-87
2022/08/26 13:50:11;;;;;;;;;;;20.30;99.90;;;;;;5007505;28;20019;-84
2022/08/26 13:52:37;;;;;;;;;;;20.20;99.90;;;;;;4995163;28;20141;-84
2022/08/26 13:55:03;;;;;;;;;;;20.20;99.90;;;;;;5012475;28;19981;-86
2022/08/26 13:57:29;;;;;;;;;;;20.10;99.90;;;;;;5029188;28;19929;-86
2022/08/26 13:59:57;;;;;;;;;;;20.10;99.90;;;;;;4994345;28;19925;-87
2022/08/26 14:02:24;;;;;;;;;;;20.10;99.90;;;;;;5013411;28;20445;-84
2022/08/26 14:04:50;;;;;;;;;;;20.20;99.90;;;;;;5008160;28;20051;-91
2022/08/26 14:07:15;;;;;;;;;;;20.10;99.90;;;;;;5020393;28;20016;-86
2022/08/26 14:09:41;;;;;;;;;;;20.10;99.90;;;;;;5009481;28;19941;-86
2022/08/26 14:12:07;;;;;;;;;;;20.00;99.90;;;;;;4995453;28;20062;-85
2022/08/26 14:14:33;;;;;;;;;;;19.90;99.90;;;;;;5000915;28;19998;-87
2022/08/26 14:16:58;;;;;;;;;;;19.80;99.90;;;;;;5004208;28;19933;-85
2022/08/26 14:19:24;;;;;;;;;;;19.80;99.90;;;;;;4995179;28;20288;-85
2022/08/26 14:21:52;;;;;;;;;;;19.80;99.90;;;;;;5025606;28;19929;-92
2022/08/26 14:24:18;;;;;;;;;;;19.80;99.90;;;;;;5030089;28;20251;-86
2022/08/26 14:26:45;;;;;;;;;;;19.90;99.90;;;;;;4992066;28;19928;-84
2022/08/26 14:29:11;;;;;;;;;;;19.90;99.90;;;;;;5004069;28;20420;-90
2022/08/26 14:31:36;;;;;;;;;;;19.80;99.90;;;;;;5029142;28;19935;-88
2022/08/26 14:34:04;;;;;;;;;;;19.70;99.90;;;;;;5009032;28;20442;-86
2022/08/26 14:36:31;;;;;;;;;;;19.80;99.90;;;;;;5024925;28;19929;-90